ADDS METAR Data INFO
IDs: Format: Raw Decoded Include TAF

Data at: 2039 UTC 16 Dec 2017

KAMW 161953Z AUTO 00000KT 10SM CLR 11/M02 A2983 RMK AO2 SLP106 T01061022
KAMW 161853Z AUTO 32004KT 10SM CLR 11/M03 A2983 RMK AO2 SLP104 T01061028
KAMW 161753Z AUTO 28005KT 10SM CLR 08/M03 A2982 RMK AO2 SLP100 T00831028 10089 21039 50010
KAMW 161653Z AUTO VRB04KT 10SM CLR 08/M03 A2982 RMK AO2 SLP102 T00781033
KAMW 161553Z AUTO 31004KT 10SM CLR 05/M03 A2980 RMK AO2 SLP094 T00501033
KAMW 161453Z AUTO 27005KT 10SM CLR 01/M03 A2979 RMK AO2 SLP091 T00111033 51022
KAMW 161353Z AUTO 23005KT 10SM CLR M02/M05 A2976 RMK AO2 SLP084 T10221050
KAMW 161253Z AUTO 23005KT 10SM CLR M03/M06 A2976 RMK AO2 SLP084 T10281056
KAMW 161153Z AUTO 19004KT 10SM CLR 00/M04 A2972 RMK AO2 SLP068 T00001044 10017 21006 53002
KAMW 161053Z AUTO 23007KT 10SM CLR 01/M04 A2971 RMK AO2 SLP063 T00111039
KAMW 160953Z AUTO 23006KT 10SM CLR 01/M04 A2971 RMK AO2 SLP064 T00061039
KAMW 160853Z AUTO 21006KT 10SM CLR 01/M04 A2971 RMK AO2 SLP066 T00111039 55006
KAMW 160753Z AUTO 21009KT 10SM CLR 01/M04 A2970 RMK AO2 SLP062 T00061039
KAMW 160653Z AUTO 22008KT 10SM CLR 01/M04 A2972 RMK AO2 SLP068 T00061044
KAMW 160553Z AUTO 22008KT 10SM CLR 02/M04 A2973 RMK AO2 SLP072 T00171039 10044 20017 400721033 56014
KAMW 160453Z AUTO 21012KT 10SM CLR 03/M04 A2974 RMK AO2 SLP074 T00281039
KAMW 160353Z AUTO 20009KT 10SM CLR 02/M04 A2975 RMK AO2 SLP081 T00221039
KAMW 160253Z AUTO 21009KT 10SM CLR 03/M04 A2977 RMK AO2 SLP088 T00281039 58014
KAMW 160153Z AUTO 21009KT 10SM SCT085 04/M04 A2979 RMK AO2 SLP095 T00391039
KAMW 160053Z AUTO 20008KT 10SM OVC100 04/M04 A2981 RMK AO2 SLP099 T00441039
KAMW 152353Z AUTO 21007KT 10SM OVC100 04/M04 A2982 RMK AO2 SLP102 T00391044 10072 20039 56010
KAMW 152253Z AUTO 23011KT 10SM CLR 05/M04 A2983 RMK AO2 SLP106 T00501044
KAMW 152153Z AUTO 24016KT 10SM SCT085 07/M04 A2983 RMK AO2 SLP108 T00671044
KAMW 152053Z AUTO 25014KT 10SM CLR 07/M04 A2985 RMK AO2 SLP112 T00721044 58025
KAMW 151953Z AUTO 26018G26KT 10SM CLR 07/M04 A2987 RMK AO2 PK WND 26028/1904 SLP120 T00721039
KAMW 151853Z AUTO 26019G25KT 10SM CLR 06/M04 A2990 RMK AO2 PK WND 26028/1834 SLP133 T00561044
KAMW 151753Z AUTO 26018G24KT 10SM CLR 06/M03 A2992 RMK AO2 SLP138 T00561028 10056 21022 58014
KAMW 151653Z AUTO 26016G21KT 10SM SCT046 OVC060 03/M03 A2996 RMK AO2 SLP150 T00331028
KAMW 151553Z AUTO 25014KT 10SM OVC060 01/M03 A2996 RMK AO2 SLP152 T00111028
KAMW 151453Z AUTO 24009KT 10SM OVC055 M01/M03 A2997 RMK AO2 SLP155 T10061028 58011
KAMW 151353Z AUTO 24012KT 10SM OVC060 M01/M03 A2998 RMK AO2 SLP160 T10111033
KAMW 151253Z AUTO 24008KT 10SM FEW041 OVC055 M02/M04 A3000 RMK AO2 SLP166 T10221039
KAMW 151153Z AUTO 24009KT 10SM OVC050 M02/M04 A3000 RMK AO2 SLP167 T10221044 11017 21033 56018
KAMW 151053Z AUTO 25008KT 10SM OVC060 M03/M04 A3001 RMK AO2 SLP171 T10331044
KAMW 150953Z AUTO 24006KT 10SM OVC055 M03/M05 A3003 RMK AO2 SLP178 T10331050
KAMW 150853Z AUTO 29006KT 10SM OVC040 M03/M05 A3005 RMK AO2 SLP185 T10281050 56005